Vernon Rockville, Connecticut
Current Conditions -  °F | °C
As of 11:53 AM on Wednesday 22 Oct 2014 (Local Time) from KHFD Reporting Station
Overcast Overcast  
Wind Chill: 56°   Ceiling: 2100
Heat Index: 56°   Visibility: 10mi
Dew Point: 48°   Wind: 7mph
Humidity: 75%   Direction: 40°NE
Pressure: 29.97"   Gusts: 25mph
Location:  41.84°N, 72.47°W
Report Text: KHFD 221553Z 04006G22KT 10SM OVC021 13/09 A2997 RMK AO2 SLP149 T01330089
Loading
Personal Weather Stations






























Interactive Weather Map
Tropical Storm Tracking
New forecast layout! Learn more

10-Day Weather Forecast

Advertisements
Track Severe Weather on mobile